Here is the Quick Look data you requested

The Data originates at the National Weather Service, and is made available here by the UAlbany Department of Atmospheric and Environmental Sciences

Surface Observations

KPTB 171055Z AUTO 00000KT 10SM BKN041 BKN055 OVC070 18/16 A3023 RMK AO2
 T01800157=